createdAt,value
2019-04-23T00:00:20.540Z,81.86
2019-04-23T00:02:23.270Z,82.06
2019-04-23T00:03:22.809Z,81.58
2019-04-23T00:04:24.100Z,81.77
2019-04-23T00:05:35.371Z,81.48
2019-04-23T00:06:23.354Z,81.58
2019-04-23T00:07:39.649Z,81.86
2019-04-23T00:08:29.196Z,81.82
2019-04-23T00:10:27.426Z,81.77
2019-04-23T00:11:25.559Z,81.63
2019-04-23T00:12:31.348Z,81.54
2019-04-23T00:13:24.222Z,81.20
2019-04-23T00:14:30.331Z,81.48
2019-04-23T00:15:33.565Z,81.20
2019-04-23T00:16:26.307Z,81.38
2019-04-23T00:17:32.038Z,81.67
2019-04-23T00:18:34.106Z,81.58
2019-04-23T00:19:24.744Z,81.58
2019-04-23T00:20:20.512Z,81.38
2019-04-23T00:21:28.202Z,81.06
2019-04-23T00:22:28.834Z,81.15
2019-04-23T00:23:25.826Z,81.35
2019-04-23T00:24:28.422Z,81.44
2019-04-23T00:27:29.229Z,81.63
2019-04-23T00:28:29.782Z,81.44
2019-04-23T00:29:32.785Z,81.35
2019-04-23T00:30:26.605Z,81.35
2019-04-23T00:31:25.716Z,81.44
2019-04-23T00:33:34.233Z,81.44
2019-04-23T00:34:25.022Z,81.63
2019-04-23T00:35:18.111Z,81.35
2019-04-23T00:36:32.073Z,81.63
2019-04-23T00:37:44.386Z,81.73
2019-04-23T00:38:28.365Z,81.73
2019-04-23T00:39:26.464Z,81.54
2019-04-23T00:40:25.878Z,82.11
2019-04-23T00:41:24.770Z,81.82
2019-04-23T00:42:29.552Z,82.20
2019-04-23T00:44:26.800Z,82.01
2019-04-23T00:45:28.725Z,82.11
2019-04-23T00:46:22.392Z,82.11
2019-04-23T00:47:29.449Z,82.01
2019-04-23T00:49:29.154Z,81.35
2019-04-23T00:50:33.889Z,81.35
2019-04-23T00:51:28.512Z,82.01
2019-04-23T00:52:26.667Z,82.01
2019-04-23T00:53:22.117Z,82.20
2019-04-23T00:54:26.228Z,81.82
2019-04-23T00:55:26.250Z,81.92
2019-04-23T00:56:38.327Z,81.82
2019-04-23T00:57:29.367Z,82.01
2019-04-23T00:58:27.869Z,82.01
2019-04-23T00:59:27.003Z,81.82
2019-04-23T01:00:46.016Z,81.92
2019-04-23T01:01:28.436Z,81.92
2019-04-23T01:02:29.727Z,82.11
2019-04-23T01:04:28.165Z,81.78
2019-04-23T01:05:27.723Z,82.40
2019-04-23T01:06:24.125Z,82.01
2019-04-23T01:07:24.674Z,82.07
2019-04-23T01:08:26.378Z,81.97
2019-04-23T01:09:34.698Z,81.82
2019-04-23T01:10:30.555Z,81.68
2019-04-23T01:12:31.970Z,82.07
2019-04-23T01:14:29.265Z,81.88
2019-04-23T01:15:42.736Z,81.49
2019-04-23T01:16:22.907Z,81.68
2019-04-23T01:17:32.257Z,81.68
2019-04-23T01:18:36.481Z,81.30
2019-04-23T01:19:31.604Z,81.88
2019-04-23T01:20:21.012Z,81.88
2019-04-23T01:21:03.603Z,81.68
2019-04-23T01:22:04.166Z,82.07
2019-04-23T01:23:03.614Z,81.97
2019-04-23T01:24:08.115Z,81.59
2019-04-23T01:25:13.571Z,81.30
2019-04-23T01:26:23.851Z,81.49
2019-04-23T01:28:25.276Z,81.12
2019-04-23T01:28:42.435Z,80.73
2019-04-23T01:29:28.323Z,81.02
2019-04-23T01:30:27.686Z,81.21
2019-04-23T01:31:31.146Z,81.21
2019-04-23T01:32:32.084Z,81.02
2019-04-23T01:33:34.109Z,80.92
2019-04-23T01:34:31.365Z,81.12
2019-04-23T01:35:26.971Z,80.83
2019-04-23T01:36:31.445Z,80.83
2019-04-23T01:37:30.464Z,81.02
2019-04-23T01:38:35.113Z,81.12
2019-04-23T01:39:27.824Z,80.83
2019-04-23T01:40:31.961Z,80.92
2019-04-23T01:41:28.966Z,80.73
2019-04-23T01:42:35.692Z,80.73
2019-04-23T01:43:30.130Z,81.02
2019-04-23T01:44:36.989Z,81.12
2019-04-23T01:47:33.619Z,80.64
2019-04-23T01:48:30.112Z,81.02
2019-04-23T01:49:39.581Z,81.12
2019-04-23T01:51:34.422Z,81.02
2019-04-23T01:52:33.102Z,80.92
2019-04-23T01:53:33.544Z,80.83
2019-04-23T01:54:30.382Z,81.02
2019-04-23T01:56:30.878Z,80.64
2019-04-23T01:57:33.865Z,80.44
2019-04-23T01:59:31.705Z,81.12
2019-04-23T02:01:32.847Z,80.54
2019-04-23T02:02:40.872Z,80.16
2019-04-23T02:03:48.509Z,79.97
2019-04-23T02:04:28.500Z,80.07
2019-04-23T02:06:31.424Z,80.64
2019-04-23T02:07:38.751Z,80.44
2019-04-23T02:08:26.294Z,80.44
2019-04-23T02:09:39.285Z,80.16
2019-04-23T02:10:41.611Z,80.44
2019-04-23T02:11:37.489Z,80.64
2019-04-23T02:12:33.330Z,80.35
2019-04-23T02:13:36.303Z,80.26
2019-04-23T02:14:29.631Z,80.41
2019-04-23T02:15:29.953Z,80.16
2019-04-23T02:16:33.412Z,80.50
2019-04-23T02:17:31.629Z,80.79
2019-04-23T02:18:32.129Z,80.12
2019-04-23T02:19:32.126Z,80.12
2019-04-23T02:21:35.208Z,80.02
2019-04-23T02:22:38.192Z,80.02
2019-04-23T02:23:31.455Z,80.22
2019-04-23T02:24:33.772Z,79.93
2019-04-23T02:27:36.318Z,79.93
2019-04-23T02:28:32.851Z,80.22
2019-04-23T02:29:43.638Z,80.31
2019-04-23T02:31:52.984Z,80.50
2019-04-23T02:32:37.723Z,79.83
2019-04-23T02:36:39.379Z,79.64
2019-04-23T02:39:49.800Z,79.74
2019-04-23T02:40:47.085Z,79.64
2019-04-23T02:41:34.669Z,79.83
2019-04-23T02:42:55.950Z,79.46
2019-04-23T02:43:59.584Z,79.83
2019-04-23T02:44:34.981Z,78.88
2019-04-23T02:46:31.203Z,79.55
2019-04-23T02:49:43.863Z,79.55
2019-04-23T02:50:47.840Z,79.55
2019-04-23T02:51:54.507Z,78.98
2019-04-23T02:53:46.634Z,79.36
2019-04-23T02:54:50.405Z,78.88
2019-04-23T02:55:43.608Z,78.59
2019-04-23T02:57:39.179Z,78.88
2019-04-23T02:59:57.797Z,78.50
2019-04-23T03:00:38.137Z,78.59
2019-04-23T03:01:58.352Z,78.98
2019-04-23T03:02:45.105Z,79.17
2019-04-23T03:03:42.781Z,79.36
2019-04-23T03:04:48.149Z,79.17
2019-04-23T03:05:46.483Z,79.64
2019-04-23T03:06:43.365Z,79.64
2019-04-23T03:08:42.715Z,79.93
2019-04-23T03:09:51.741Z,79.83
2019-04-23T03:10:43.298Z,79.83
2019-04-23T03:11:44.911Z,79.55
2019-04-23T03:12:41.518Z,79.93
2019-04-23T03:14:41.680Z,79.55
2019-04-23T03:16:51.463Z,80.12
2019-04-23T03:17:51.169Z,80.02
2019-04-23T03:18:45.867Z,80.12
2019-04-23T03:20:48.698Z,80.12
2019-04-23T03:21:48.920Z,79.93
2019-04-23T03:22:47.430Z,80.08
2019-04-23T03:24:00.031Z,79.99
2019-04-23T03:24:55.105Z,80.02
2019-04-23T03:25:33.969Z,79.80
2019-04-23T03:26:51.568Z,80.08
2019-04-23T03:31:28.006Z,80.27
2019-04-23T03:33:29.646Z,80.36
2019-04-23T03:36:14.029Z,80.65
2019-04-23T03:37:39.630Z,80.65
2019-04-23T03:38:45.672Z,80.75
2019-04-23T03:39:52.961Z,80.75
2019-04-23T03:40:39.195Z,80.65
2019-04-23T03:41:39.681Z,80.55
2019-04-23T03:43:39.136Z,80.84
2019-04-23T03:45:00.598Z,80.94
2019-04-23T03:48:41.644Z,81.51
2019-04-23T03:49:41.249Z,80.84
2019-04-23T03:51:43.337Z,80.75
2019-04-23T03:53:10.971Z,80.65
2019-04-23T03:57:37.998Z,80.75
2019-04-23T04:00:47.396Z,80.36
2019-04-23T04:01:38.403Z,80.65
2019-04-23T04:02:48.556Z,80.65
2019-04-23T04:04:04.359Z,80.84
2019-04-23T04:04:43.376Z,80.27
2019-04-23T04:05:56.149Z,80.36
2019-04-23T04:06:45.465Z,80.08
2019-04-23T04:08:35.954Z,80.27
2019-04-23T04:09:43.027Z,80.18
2019-04-23T04:10:44.225Z,80.18
2019-04-23T04:12:39.669Z,80.46
2019-04-23T04:13:42.959Z,80.08
2019-04-23T04:14:54.589Z,80.55
2019-04-23T04:16:43.302Z,79.22
2019-04-23T04:17:40.248Z,79.60
2019-04-23T04:18:54.674Z,79.80
2019-04-23T04:19:39.970Z,79.60
2019-04-23T04:21:38.761Z,78.85
2019-04-23T04:22:46.656Z,79.13
2019-04-23T04:23:43.119Z,79.80
2019-04-23T04:24:57.941Z,79.13
2019-04-23T04:25:39.239Z,79.80
2019-04-23T04:26:52.365Z,79.70
2019-04-23T04:27:47.883Z,79.99
2019-04-23T04:29:47.280Z,78.17
2019-04-23T04:31:45.725Z,78.46
2019-04-23T04:32:47.370Z,78.85
2019-04-23T04:35:12.533Z,79.80
2019-04-23T04:35:27.502Z,79.60
2019-04-23T04:36:45.592Z,79.32
2019-04-23T04:39:42.437Z,78.56
2019-04-23T04:41:39.981Z,78.37
2019-04-23T04:43:50.826Z,78.85
2019-04-23T04:45:56.825Z,79.32
2019-04-23T04:46:45.950Z,78.56
2019-04-23T04:47:42.612Z,78.85
2019-04-23T04:48:40.205Z,78.94
2019-04-23T04:50:45.989Z,77.61
2019-04-23T04:51:51.867Z,78.08
2019-04-23T04:53:00.689Z,78.27
2019-04-23T04:53:58.196Z,78.75
2019-04-23T04:54:24.109Z,78.27
2019-04-23T04:56:42.627Z,79.03
2019-04-23T04:57:45.680Z,79.89
2019-04-23T04:59:50.388Z,78.17
2019-04-23T05:01:36.862Z,77.89
2019-04-23T05:03:02.949Z,78.08
2019-04-23T05:03:29.769Z,77.98
2019-04-23T05:04:54.015Z,77.80
2019-04-23T05:06:52.348Z,77.98
2019-04-23T05:08:54.488Z,77.32
2019-04-23T05:10:49.725Z,77.32
2019-04-23T05:11:45.392Z,77.51
2019-04-23T05:13:03.943Z,77.70
2019-04-23T05:14:52.943Z,77.98
2019-04-23T05:15:39.125Z,76.75
2019-04-23T05:16:33.448Z,76.84
2019-04-23T05:18:39.958Z,77.80
2019-04-23T05:19:53.356Z,77.98
2019-04-23T05:22:38.962Z,76.65
2019-04-23T05:23:33.494Z,76.75
2019-04-23T05:24:37.052Z,77.42
2019-04-23T05:25:33.121Z,76.37
2019-04-23T05:26:27.086Z,76.56
2019-04-23T05:27:37.285Z,76.27
2019-04-23T05:28:40.905Z,76.65
2019-04-23T05:29:48.595Z,76.84
2019-04-23T05:30:38.397Z,76.94
2019-04-23T05:31:33.065Z,77.42
2019-04-23T05:32:36.737Z,77.51
2019-04-23T05:33:41.532Z,77.13
2019-04-23T05:34:33.658Z,77.51
2019-04-23T05:36:04.936Z,78.08
2019-04-23T05:36:55.752Z,76.84
2019-04-23T05:37:42.259Z,76.56
2019-04-23T05:38:43.793Z,76.65
2019-04-23T05:39:35.851Z,76.75
2019-04-23T05:40:47.770Z,77.13
2019-04-23T05:41:34.836Z,77.32
2019-04-23T05:42:43.313Z,76.94
2019-04-23T05:44:41.239Z,75.99
2019-04-23T05:45:34.421Z,75.99
2019-04-23T05:46:37.780Z,75.89
2019-04-23T05:48:33.356Z,76.18
2019-04-23T05:49:31.894Z,76.18
2019-04-23T05:50:44.442Z,76.88
2019-04-23T05:51:42.097Z,76.59
2019-04-23T05:52:37.916Z,75.93
2019-04-23T05:54:37.407Z,75.64
2019-04-23T05:55:34.343Z,75.64
2019-04-23T05:56:32.343Z,74.50
2019-04-23T05:57:34.511Z,75.64
2019-04-23T05:58:40.030Z,75.74
2019-04-23T05:59:52.831Z,75.64
2019-04-23T06:00:39.930Z,75.07
2019-04-23T06:02:46.006Z,75.93
2019-04-23T06:03:39.344Z,75.45
2019-04-23T06:04:36.980Z,74.79
2019-04-23T06:05:41.194Z,74.60
2019-04-23T06:06:45.559Z,75.40
2019-04-23T06:07:38.894Z,75.11
2019-04-23T06:08:43.592Z,74.63
2019-04-23T06:09:37.582Z,74.44
2019-04-23T06:10:40.762Z,74.82
2019-04-23T06:11:47.065Z,73.77
2019-04-23T06:12:34.842Z,73.39
2019-04-23T06:13:46.218Z,73.01
2019-04-23T06:14:41.023Z,73.87
2019-04-23T06:15:41.665Z,73.58
2019-04-23T06:17:34.022Z,73.52
2019-04-23T06:18:38.563Z,73.52
2019-04-23T06:19:24.623Z,74.38
2019-04-23T06:20:43.612Z,73.05
2019-04-23T06:21:44.756Z,72.86
2019-04-23T06:22:45.472Z,71.91
2019-04-23T06:23:46.324Z,71.62
2019-04-23T06:24:35.014Z,71.43
2019-04-23T06:25:49.540Z,71.37
2019-04-23T06:26:42.591Z,71.37
2019-04-23T06:27:32.299Z,70.83
2019-04-23T06:28:32.599Z,70.36
2019-04-23T06:29:39.403Z,69.49
2019-04-23T06:31:40.765Z,68.48
2019-04-23T06:32:51.267Z,68.38
2019-04-23T06:33:41.783Z,68.80
2019-04-23T06:35:36.285Z,69.02
2019-04-23T06:37:49.927Z,68.77
2019-04-23T06:39:35.845Z,66.09
2019-04-23T06:40:33.583Z,64.66
2019-04-23T06:41:39.641Z,63.73
2019-04-23T06:42:37.037Z,64.02
2019-04-23T06:43:47.158Z,63.93
2019-04-23T06:44:54.931Z,63.76
2019-04-23T06:45:32.212Z,63.57
2019-04-23T06:46:48.350Z,63.39
2019-04-23T06:48:33.819Z,62.84
2019-04-23T06:49:37.062Z,62.84
2019-04-23T06:50:43.603Z,61.79
2019-04-23T06:51:46.682Z,61.72
2019-04-23T06:52:24.805Z,60.57
2019-04-23T06:53:28.625Z,60.19
2019-04-23T06:54:45.932Z,60.38
2019-04-23T06:55:38.225Z,59.80
2019-04-23T06:56:43.284Z,59.55
2019-04-23T06:57:44.254Z,59.26
2019-04-23T06:58:37.384Z,60.03
2019-04-23T06:59:39.192Z,59.45
2019-04-23T07:00:33.937Z,59.45
2019-04-23T07:01:36.103Z,59.55
2019-04-23T07:02:42.238Z,59.55
2019-04-23T07:03:38.918Z,59.16
2019-04-23T07:04:43.590Z,57.95
2019-04-23T07:05:39.324Z,57.65
2019-04-23T07:06:38.342Z,57.85
2019-04-23T07:07:52.818Z,58.14
2019-04-23T07:09:27.735Z,58.14
2019-04-23T07:10:40.378Z,57.56
2019-04-23T07:11:40.250Z,57.75
2019-04-23T07:12:38.847Z,57.56
2019-04-23T07:13:46.532Z,57.08
2019-04-23T07:14:44.140Z,57.40
2019-04-23T07:15:46.484Z,57.59
2019-04-23T07:16:32.536Z,57.21
2019-04-23T07:17:31.055Z,56.53
2019-04-23T07:18:35.882Z,56.34
2019-04-23T07:19:39.297Z,56.02
2019-04-23T07:20:37.913Z,56.44
2019-04-23T07:21:55.870Z,57.50
2019-04-23T07:22:37.493Z,57.30
2019-04-23T07:24:36.263Z,57.59
2019-04-23T07:25:40.436Z,56.92
2019-04-23T07:27:31.314Z,56.37
2019-04-23T07:28:48.482Z,57.52
2019-04-23T07:29:40.534Z,58.10
2019-04-23T07:30:34.453Z,57.33
2019-04-23T07:32:35.868Z,56.76
2019-04-23T07:33:45.894Z,57.04
2019-04-23T07:34:39.792Z,56.59
2019-04-23T07:35:33.219Z,55.44
2019-04-23T07:36:40.648Z,55.15
2019-04-23T07:37:43.044Z,55.53
2019-04-23T07:38:48.199Z,55.82
2019-04-23T07:40:31.189Z,56.30
2019-04-23T07:41:52.659Z,55.53
2019-04-23T07:42:42.794Z,55.82
2019-04-23T07:43:37.679Z,55.44
2019-04-23T07:44:42.653Z,54.57
2019-04-23T07:45:34.922Z,54.57
2019-04-23T07:46:45.070Z,54.47
2019-04-23T07:47:35.833Z,55.15
2019-04-23T07:48:32.490Z,56.01
2019-04-23T07:49:38.494Z,56.01
2019-04-23T07:51:36.881Z,55.46
2019-04-23T07:52:41.049Z,55.73
2019-04-23T07:53:39.877Z,55.73
2019-04-23T07:54:45.727Z,55.15
2019-04-23T07:55:58.974Z,54.96
2019-04-23T07:56:35.854Z,55.53
2019-04-23T07:57:34.030Z,55.91
2019-04-23T07:59:44.007Z,54.77
2019-04-23T08:01:34.834Z,55.15
2019-04-23T08:02:33.598Z,55.53
2019-04-23T08:03:40.334Z,55.05
2019-04-23T08:04:48.820Z,55.15
2019-04-23T08:05:43.239Z,55.69
2019-04-23T08:06:41.012Z,55.89
2019-04-23T08:08:36.425Z,56.82
2019-04-23T08:09:43.007Z,57.40
2019-04-23T08:10:47.135Z,57.59
2019-04-23T08:12:42.468Z,58.81
2019-04-23T08:14:40.458Z,58.04
2019-04-23T08:16:36.804Z,58.30
2019-04-23T08:17:34.588Z,59.16
2019-04-23T08:18:45.550Z,59.83
2019-04-23T08:19:52.343Z,59.83
2019-04-23T08:20:46.973Z,60.12
2019-04-23T08:21:45.993Z,59.74
2019-04-23T08:22:40.874Z,60.09
2019-04-23T08:23:44.054Z,60.47
2019-04-23T08:24:45.392Z,61.15
2019-04-23T08:25:47.223Z,60.76
2019-04-23T08:26:44.013Z,61.53
2019-04-23T08:27:34.837Z,61.91
2019-04-23T08:28:56.022Z,61.72
2019-04-23T08:29:30.984Z,61.72
2019-04-23T08:30:43.438Z,61.50
2019-04-23T08:31:43.647Z,61.11
2019-04-23T08:32:28.023Z,61.88
2019-04-23T08:33:47.233Z,61.98
2019-04-23T08:35:42.930Z,61.79
2019-04-23T08:36:44.375Z,60.93
2019-04-23T08:38:45.927Z,61.40
2019-04-23T08:39:38.578Z,61.47
2019-04-23T08:40:46.798Z,61.76
2019-04-23T08:41:48.374Z,62.07
2019-04-23T08:42:46.818Z,62.33
2019-04-23T08:43:47.831Z,61.98
2019-04-23T08:46:51.088Z,63.00
2019-04-23T08:47:57.914Z,62.71
2019-04-23T08:48:41.669Z,62.65
2019-04-23T08:49:43.932Z,63.67
2019-04-23T08:50:38.458Z,63.29
2019-04-23T08:52:39.861Z,63.48
2019-04-23T08:55:46.443Z,62.93
2019-04-23T08:56:46.401Z,63.51
2019-04-23T08:57:36.619Z,63.03
2019-04-23T08:58:41.662Z,63.42
2019-04-23T08:59:43.514Z,64.09
2019-04-23T09:00:45.571Z,64.56
2019-04-23T09:02:18.304Z,64.09
2019-04-23T09:03:34.512Z,62.26
2019-04-23T09:05:50.616Z,62.55
2019-04-23T09:06:34.911Z,62.36
2019-04-23T09:07:37.515Z,62.65
2019-04-23T09:08:37.596Z,62.36
2019-04-23T09:09:45.540Z,62.74
2019-04-23T09:10:44.486Z,62.65
2019-04-23T09:14:39.943Z,62.87
2019-04-23T09:15:44.561Z,63.35
2019-04-23T09:16:44.775Z,63.73
2019-04-23T09:17:46.219Z,63.45
2019-04-23T09:18:42.543Z,62.87
2019-04-23T09:20:03.689Z,63.54
2019-04-23T09:20:30.641Z,63.64
2019-04-23T09:21:47.208Z,63.45
2019-04-23T09:22:38.610Z,62.68
2019-04-23T09:23:39.203Z,62.10
2019-04-23T09:24:43.140Z,62.10
2019-04-23T09:25:44.549Z,62.20
2019-04-23T09:26:48.756Z,61.63
2019-04-23T09:27:40.135Z,61.82
2019-04-23T09:28:45.757Z,61.91
2019-04-23T09:29:47.588Z,61.91
2019-04-23T09:30:42.480Z,62.49
2019-04-23T09:32:05.230Z,63.86
2019-04-23T09:32:40.172Z,61.85
2019-04-23T09:33:49.799Z,60.60
2019-04-23T09:34:46.657Z,60.89
2019-04-23T09:35:36.017Z,61.18
2019-04-23T09:36:40.626Z,61.66
2019-04-23T09:37:49.329Z,61.18
2019-04-23T09:38:39.913Z,61.94
2019-04-23T09:39:43.284Z,61.56
2019-04-23T09:41:51.495Z,63.29
2019-04-23T09:42:46.322Z,63.76
2019-04-23T09:43:43.207Z,61.94
2019-04-23T09:45:00.056Z,61.37
2019-04-23T09:45:46.643Z,60.60
2019-04-23T09:46:40.478Z,60.99
2019-04-23T09:47:46.049Z,61.66
2019-04-23T09:48:45.578Z,62.07
2019-04-23T09:49:39.457Z,62.07
2019-04-23T09:50:41.437Z,62.26
2019-04-23T09:52:48.494Z,61.02
2019-04-23T09:53:58.034Z,61.88
2019-04-23T09:54:51.339Z,61.69
2019-04-23T09:55:40.422Z,61.21
2019-04-23T09:56:41.601Z,61.30
2019-04-23T09:57:43.444Z,62.74
2019-04-23T09:58:39.437Z,61.69
2019-04-23T09:59:47.356Z,60.75
2019-04-23T10:01:34.459Z,59.61
2019-04-23T10:02:30.991Z,60.47
2019-04-23T10:03:25.523Z,60.57
2019-04-23T10:04:27.360Z,60.28
2019-04-23T10:05:26.183Z,59.51
2019-04-23T10:06:20.840Z,59.51
2019-04-23T10:07:27.121Z,59.61
2019-04-23T10:08:21.086Z,59.22
2019-04-23T10:09:14.577Z,59.83
2019-04-23T10:10:14.414Z,60.31
2019-04-23T10:11:15.858Z,60.31
2019-04-23T10:12:14.663Z,60.21
2019-04-23T10:13:14.010Z,58.29
2019-04-23T10:14:14.697Z,58.77
2019-04-23T10:15:22.779Z,58.96
2019-04-23T10:16:17.233Z,58.89
2019-04-23T10:17:14.109Z,58.99
2019-04-23T10:18:14.219Z,58.35
2019-04-23T10:19:15.063Z,57.58
2019-04-23T10:20:14.186Z,57.29
2019-04-23T10:21:15.316Z,56.91
2019-04-23T10:22:15.184Z,56.45
2019-04-23T10:23:15.813Z,56.26
2019-04-23T10:24:15.072Z,56.26
2019-04-23T10:25:15.193Z,56.58
2019-04-23T10:26:14.415Z,55.71
2019-04-23T10:27:14.854Z,54.68
2019-04-23T10:28:15.194Z,54.58
2019-04-23T10:29:15.907Z,54.30
2019-04-23T10:30:14.552Z,54.61
2019-04-23T10:31:14.543Z,54.68
2019-04-23T10:32:15.613Z,54.71
2019-04-23T10:33:15.685Z,53.27
2019-04-23T10:34:14.828Z,52.71
2019-04-23T10:35:22.131Z,52.52
2019-04-23T10:36:19.120Z,52.93
2019-04-23T10:37:15.584Z,52.81
2019-04-23T10:38:18.165Z,53.51
2019-04-23T10:39:20.759Z,52.09
2019-04-23T10:40:19.420Z,51.51
2019-04-23T10:41:15.986Z,51.41
2019-04-23T10:42:15.999Z,52.21
2019-04-23T10:43:15.213Z,51.44
2019-04-23T10:44:14.846Z,50.38
2019-04-23T10:45:30.322Z,51.07
2019-04-23T10:46:39.461Z,51.27
2019-04-23T10:47:45.348Z,51.01
2019-04-23T10:48:52.840Z,50.43
2019-04-23T10:50:46.510Z,48.79
2019-04-23T10:51:49.465Z,48.23
2019-04-23T10:52:36.138Z,48.23
2019-04-23T10:54:02.377Z,48.16
2019-04-23T10:54:41.438Z,48.25
2019-04-23T10:57:41.336Z,47.60
2019-04-23T10:58:38.454Z,47.50
2019-04-23T11:00:46.916Z,46.73
2019-04-23T11:01:45.046Z,47.19
2019-04-23T11:02:59.354Z,47.31
2019-04-23T11:05:50.337Z,47.11
2019-04-23T11:07:53.722Z,48.27
2019-04-23T11:08:45.572Z,47.91
2019-04-23T11:10:48.448Z,46.19
2019-04-23T11:11:48.431Z,45.61
2019-04-23T11:13:44.964Z,45.61
2019-04-23T11:14:52.716Z,46.36
2019-04-23T11:16:05.489Z,47.45
2019-04-23T11:17:45.524Z,46.87
2019-04-23T11:19:50.851Z,46.51
2019-04-23T11:20:45.296Z,46.24
2019-04-23T11:21:42.705Z,45.47
2019-04-23T11:23:50.179Z,45.10
2019-04-23T11:25:14.764Z,45.00
2019-04-23T11:26:49.841Z,44.51
2019-04-23T11:27:43.575Z,44.92
2019-04-23T11:28:45.014Z,44.42
2019-04-23T11:30:41.446Z,44.05
2019-04-23T11:32:11.768Z,43.27
2019-04-23T11:32:56.417Z,43.57
2019-04-23T11:33:49.688Z,43.64
2019-04-23T11:35:06.793Z,44.13
2019-04-23T11:36:53.785Z,44.13
2019-04-23T11:38:15.943Z,44.42
2019-04-23T11:39:45.062Z,44.03
2019-04-23T11:40:40.398Z,44.23
2019-04-23T11:41:56.847Z,44.51
2019-04-23T11:42:53.812Z,43.54
2019-04-23T11:44:49.115Z,44.51
2019-04-23T11:49:53.296Z,43.74
2019-04-23T11:51:24.160Z,43.84
2019-04-23T11:52:01.253Z,44.10
2019-04-23T11:52:51.732Z,44.40
2019-04-23T11:53:47.949Z,44.98
2019-04-23T11:54:48.670Z,44.88
2019-04-23T11:59:57.662Z,44.90
2019-04-23T12:00:51.316Z,45.12
2019-04-23T12:01:52.952Z,44.24
2019-04-23T12:02:56.313Z,44.05
2019-04-23T12:04:00.683Z,43.66
2019-04-23T12:04:53.237Z,44.07
2019-04-23T12:05:52.354Z,44.17
2019-04-23T12:06:45.965Z,44.17
2019-04-23T12:07:35.657Z,43.59
2019-04-23T12:08:44.669Z,43.40
2019-04-23T12:09:46.513Z,42.74
2019-04-23T12:12:39.639Z,43.32
2019-04-23T12:13:54.572Z,43.32
2019-04-23T12:15:48.186Z,43.12
2019-04-23T12:17:05.537Z,42.91
2019-04-23T12:17:49.120Z,43.10
2019-04-23T12:18:51.442Z,43.08
2019-04-23T12:20:03.349Z,43.47
2019-04-23T12:20:56.867Z,43.57
2019-04-23T12:21:56.652Z,43.64
2019-04-23T12:22:51.030Z,43.45
2019-04-23T12:24:00.242Z,43.84
2019-04-23T12:25:45.767Z,43.95
2019-04-23T12:26:55.880Z,43.76
2019-04-23T12:27:59.638Z,43.84
2019-04-23T12:28:49.931Z,43.93
2019-04-23T12:29:49.145Z,44.20
2019-04-23T12:30:45.372Z,44.98
2019-04-23T12:31:49.175Z,45.47
2019-04-23T12:33:49.076Z,44.68
2019-04-23T12:34:56.000Z,44.49
2019-04-23T12:35:39.000Z,44.40
2019-04-23T12:36:45.425Z,44.98
2019-04-23T12:37:51.907Z,45.07
2019-04-23T12:38:38.822Z,44.78
2019-04-23T12:39:51.185Z,45.37
2019-04-23T12:40:51.083Z,44.67
2019-04-23T12:41:52.866Z,45.44
2019-04-23T12:42:53.888Z,45.44
2019-04-23T12:43:40.545Z,45.81
2019-04-23T12:45:47.390Z,45.90
2019-04-23T12:46:57.717Z,46.00
2019-04-23T12:47:58.417Z,45.81
2019-04-23T12:49:25.578Z,45.98
2019-04-23T12:50:05.048Z,46.84
2019-04-23T12:50:48.506Z,47.02
2019-04-23T12:51:50.207Z,46.44
2019-04-23T12:52:47.280Z,46.83
2019-04-23T12:53:45.585Z,46.92
2019-04-23T12:55:02.506Z,47.48
2019-04-23T12:55:43.706Z,47.48
2019-04-23T12:56:56.874Z,47.96
2019-04-23T12:57:46.896Z,47.74
2019-04-23T12:58:37.902Z,47.84
2019-04-23T13:00:40.006Z,48.81
2019-04-23T13:01:49.711Z,48.61
2019-04-23T13:02:48.672Z,48.81
2019-04-23T13:03:39.231Z,49.37
2019-04-23T13:04:48.624Z,49.65
2019-04-23T13:05:36.016Z,49.55
2019-04-23T13:06:44.229Z,49.85
2019-04-23T13:07:55.512Z,49.75
2019-04-23T13:09:01.346Z,49.55
2019-04-23T13:09:54.536Z,50.04
2019-04-23T13:10:48.222Z,49.95
2019-04-23T13:11:50.129Z,50.43
2019-04-23T13:14:49.114Z,50.69
2019-04-23T13:15:48.969Z,50.69
2019-04-23T13:16:58.681Z,50.89
2019-04-23T13:17:50.577Z,51.05
2019-04-23T13:22:03.308Z,51.05
2019-04-23T13:23:45.979Z,51.15
2019-04-23T13:24:48.826Z,51.51
2019-04-23T13:25:49.580Z,51.80
2019-04-23T13:26:44.556Z,52.09
2019-04-23T13:27:59.148Z,52.19
2019-04-23T13:28:46.992Z,51.89
2019-04-23T13:29:51.756Z,52.47
2019-04-23T13:31:39.998Z,53.13
2019-04-23T13:32:56.331Z,52.83
2019-04-23T13:33:45.451Z,53.51
2019-04-23T13:35:05.622Z,53.70
2019-04-23T13:37:05.390Z,53.51
2019-04-23T13:37:54.529Z,53.51
2019-04-23T13:39:44.282Z,53.51
2019-04-23T13:40:57.742Z,53.70
2019-04-23T13:41:48.251Z,53.80
2019-04-23T13:42:55.163Z,53.80
2019-04-23T13:43:47.097Z,54.40
2019-04-23T13:44:48.389Z,54.66
2019-04-23T13:46:49.467Z,53.51
2019-04-23T13:47:54.071Z,53.13
2019-04-23T13:48:42.232Z,53.61
2019-04-23T13:49:52.993Z,53.80
2019-04-23T13:51:50.846Z,54.28
2019-04-23T13:54:15.763Z,54.76
2019-04-23T13:55:44.355Z,54.38
2019-04-23T13:58:51.857Z,54.64
2019-04-23T14:00:52.295Z,55.22
2019-04-23T14:02:05.704Z,56.09
2019-04-23T14:02:49.288Z,55.79
2019-04-23T14:03:50.574Z,55.87
2019-04-23T14:04:52.239Z,55.57
2019-04-23T14:05:49.362Z,55.87
2019-04-23T14:06:49.477Z,55.77
2019-04-23T14:07:57.166Z,56.54
2019-04-23T14:08:53.597Z,56.44
2019-04-23T14:09:57.132Z,56.92
2019-04-23T14:11:04.532Z,56.63
2019-04-23T14:11:40.023Z,56.92
2019-04-23T14:13:08.859Z,57.40
2019-04-23T14:13:56.752Z,57.89
2019-04-23T14:15:54.109Z,58.65
2019-04-23T14:16:54.313Z,58.53
2019-04-23T14:18:11.495Z,57.86
2019-04-23T14:19:38.319Z,58.24
2019-04-23T14:20:53.231Z,57.86
2019-04-23T14:21:46.950Z,58.37
2019-04-23T14:23:00.009Z,58.15
2019-04-23T14:26:00.209Z,58.34
2019-04-23T14:26:48.011Z,58.82
2019-04-23T14:28:01.292Z,59.49
2019-04-23T14:28:44.665Z,59.59
2019-04-23T14:30:01.200Z,59.40
2019-04-23T14:30:54.252Z,59.11
2019-04-23T14:32:00.869Z,58.82
2019-04-23T14:32:54.432Z,59.40
2019-04-23T14:34:01.286Z,59.69
2019-04-23T14:37:05.975Z,60.14
2019-04-23T14:38:01.637Z,60.72
2019-04-23T14:38:49.724Z,60.91
2019-04-23T14:39:58.934Z,61.29
2019-04-23T14:41:53.939Z,61.29
2019-04-23T14:43:04.419Z,61.74
2019-04-23T14:43:56.150Z,62.13
2019-04-23T14:45:02.688Z,61.84
2019-04-23T14:48:00.824Z,62.32
2019-04-23T14:48:52.831Z,61.81
2019-04-23T14:50:54.750Z,62.48
2019-04-23T14:51:49.755Z,62.29
2019-04-23T14:52:57.009Z,62.87
2019-04-23T14:53:48.684Z,62.58
2019-04-23T14:55:22.678Z,63.06
2019-04-23T14:55:58.135Z,63.64
2019-04-23T14:56:52.705Z,63.83
2019-04-23T14:58:06.097Z,64.28
2019-04-23T14:59:57.361Z,64.47
2019-04-23T15:01:49.010Z,64.95
2019-04-23T15:02:57.213Z,65.14
2019-04-23T15:04:54.504Z,66.00
2019-04-23T15:06:05.351Z,65.88
2019-04-23T15:07:15.659Z,66.07
2019-04-23T15:07:51.278Z,66.07
2019-04-23T15:09:02.126Z,66.46
2019-04-23T15:09:57.680Z,66.16
2019-04-23T15:11:08.198Z,66.84
2019-04-23T15:12:55.639Z,67.13
2019-04-23T15:13:49.405Z,67.03
2019-04-23T15:15:02.913Z,67.61
2019-04-23T15:15:58.001Z,67.86
2019-04-23T15:16:54.916Z,67.76
2019-04-23T15:17:49.607Z,68.15
2019-04-23T15:19:02.977Z,68.05
2019-04-23T15:19:55.402Z,68.24
2019-04-23T15:21:12.435Z,67.96
2019-04-23T15:23:10.706Z,68.24
2019-04-23T15:23:59.515Z,68.44
2019-04-23T15:25:19.397Z,68.91
2019-04-23T15:26:37.205Z,69.01
2019-04-23T15:27:55.546Z,68.82
2019-04-23T15:28:30.271Z,69.17
2019-04-23T15:29:42.441Z,69.26
2019-04-23T15:30:59.119Z,69.74
2019-04-23T15:31:55.476Z,70.23
2019-04-23T15:33:03.858Z,70.32
2019-04-23T15:34:57.346Z,69.74
2019-04-23T15:36:04.266Z,70.32
2019-04-23T15:39:54.997Z,71.09
2019-04-23T15:40:56.685Z,70.90
2019-04-23T15:42:00.830Z,71.66
2019-04-23T15:42:58.157Z,71.57
2019-04-23T15:43:57.534Z,71.25
2019-04-23T15:44:55.688Z,72.14
2019-04-23T15:45:53.856Z,71.63
2019-04-23T15:46:56.583Z,72.11
2019-04-23T15:48:00.385Z,72.11
2019-04-23T15:49:01.226Z,72.11
2019-04-23T15:49:51.364Z,72.59
2019-04-23T15:50:53.711Z,72.78
2019-04-23T15:52:56.504Z,73.26
2019-04-23T15:53:56.659Z,72.78
2019-04-23T15:54:56.743Z,73.07
2019-04-23T15:56:06.451Z,72.88